Weather at Independence Municipal Airport

Public forecast

Using degrees Fahrenheit for public forecast. Weather courtesy of forecast.io.

Current aviation weather report (METAR) for Independence Municipal Airport

Retrieved 2020/09/23 21:35 UTC (2 minutes ago):

KIDP 232135Z AUTO 20004KT 10SM CLR 25/16 A2999 RMK AO2 T02460161

Closest aviation forecast (TAF) to Independence Municipal Airport

Closest forecast is Bartlesville Municipal Airport, 26.3 nm (48.6 km) SSW. Retrieved 2020/09/23 18:46 UTC (3 hours ago):

TAF KBVO 231744Z 2318/2418 06004KT P6SM BKN025 FM232000 10004KT P6SM SCT040 FM240100 00000KT P6SM SKC TEMPO 2410/2414 1SM BR SCT004 FM241400 17004KT 2SM BR SCT004